Time;durP1;ratioP1;P1;durP2;ratioP2;P2;SDS_P1;SDS_P2;PMS_P1;PMS_P2;Temp;Humidity;BMP_temperature;BMP_pressure;BME280_temperature;BME280_humidity;BME280_pressure;Samples;Min_cycle;Max_cycle;Signal;HPM_P1;HPM_P2
2022/03/09 00:01:43;;;;;;;76.97;38.15;;;;;;;;;;6014645;23;20011;-88
2022/03/09 00:04:09;;;;;;;81.18;39.03;;;;;;;;;;6015062;23;20086;-88
2022/03/09 00:06:36;;;;;;;77.93;37.25;;;;;;;;;;6014588;23;20010;-88
2022/03/09 00:09:02;;;;;;;88.88;41.58;;;;;;;;;;6014979;23;20083;-88
2022/03/09 00:11:28;;;;;;;77.43;38.60;;;;;;;;;;6014422;23;20058;-88
2022/03/09 00:13:54;;;;;;;79.97;40.78;;;;;;;;;;6014855;23;20071;-87
2022/03/09 00:16:21;;;;;;;76.22;39.47;;;;;;;;;;6014432;23;20086;-90
2022/03/09 00:18:47;;;;;;;80.90;38.63;;;;;;;;;;6040046;23;20003;-88
2022/03/09 00:21:14;;;;;;;71.82;37.38;;;;;;;;;;6014170;23;20091;-88
2022/03/09 00:23:40;;;;;;;78.20;37.33;;;;;;;;;;6039524;23;20027;-89
2022/03/09 00:26:07;;;;;;;74.30;36.80;;;;;;;;;;6015045;23;20015;-87
2022/03/09 00:28:33;;;;;;;77.43;39.30;;;;;;;;;;6014261;23;20036;-87
2022/03/09 00:30:59;;;;;;;74.63;37.33;;;;;;;;;;6039310;23;20059;-91
2022/03/09 00:33:26;;;;;;;83.82;40.15;;;;;;;;;;6013491;23;20399;-86
2022/03/09 00:35:52;;;;;;;75.63;38.40;;;;;;;;;;6039379;23;20011;-88
2022/03/09 00:38:18;;;;;;;72.65;35.95;;;;;;;;;;6038369;23;20008;-87
2022/03/09 00:40:47;;;;;;;87.85;39.92;;;;;;;;;;6038679;23;20007;-86
2022/03/09 00:43:14;;;;;;;73.57;35.70;;;;;;;;;;6013875;23;20427;-87
2022/03/09 00:45:41;;;;;;;78.07;36.55;;;;;;;;;;6016132;23;20090;-87
2022/03/09 00:48:07;;;;;;;85.35;39.08;;;;;;;;;;6015702;23;20003;-87
2022/03/09 00:50:34;;;;;;;79.22;38.22;;;;;;;;;;6015749;23;20031;-87
2022/03/09 00:53:00;;;;;;;71.15;34.65;;;;;;;;;;6040830;23;20373;-87
2022/03/09 00:55:26;;;;;;;78.13;38.15;;;;;;;;;;6015455;23;20034;-87
2022/03/09 00:57:52;;;;;;;83.30;38.10;;;;;;;;;;6015860;23;20450;-86
2022/03/09 01:00:19;;;;;;;75.78;35.28;;;;;;;;;;6015646;23;20018;-88
2022/03/09 01:02:46;;;;;;;70.82;34.65;;;;;;;;;;6016131;23;20423;-88
2022/03/09 01:05:13;;;;;;;77.30;37.67;;;;;;;;;;6015812;23;20419;-89
2022/03/09 01:07:40;;;;;;;72.68;35.72;;;;;;;;;;6016441;23;20099;-88
2022/03/09 01:10:06;;;;;;;81.30;35.85;;;;;;;;;;6016165;23;20111;-88
2022/03/09 01:12:33;;;;;;;78.82;37.00;;;;;;;;;;6015643;23;20007;-88
2022/03/09 01:15:00;;;;;;;75.00;34.78;;;;;;;;;;6041246;23;20008;-87
2022/03/09 01:17:27;;;;;;;77.78;36.72;;;;;;;;;;6015473;23;20009;-90
2022/03/09 01:19:54;;;;;;;75.10;36.47;;;;;;;;;;6014676;23;20003;-88
2022/03/09 01:22:21;;;;;;;73.75;37.38;;;;;;;;;;6015706;23;20003;-88
2022/03/09 01:24:47;;;;;;;80.55;36.95;;;;;;;;;;6015004;23;20018;-88
2022/03/09 01:27:21;;;;;;;75.20;36.97;;;;;;;;;;6013524;23;20008;-88
2022/03/09 01:29:47;;;;;;;84.25;37.47;;;;;;;;;;6014886;23;20018;-88
2022/03/09 01:32:13;;;;;;;81.72;39.00;;;;;;;;;;6014717;23;20014;-88
2022/03/09 01:34:39;;;;;;;83.93;39.88;;;;;;;;;;6039095;23;20023;-89
2022/03/09 01:37:06;;;;;;;83.20;37.90;;;;;;;;;;6015158;23;20007;-87
2022/03/09 01:39:32;;;;;;;83.13;39.08;;;;;;;;;;6015201;23;20112;-89
2022/03/09 01:41:58;;;;;;;87.63;40.03;;;;;;;;;;6015271;23;20431;-90
2022/03/09 01:44:25;;;;;;;85.75;39.47;;;;;;;;;;6015113;23;20007;-91
2022/03/09 01:46:52;;;;;;;92.05;42.00;;;;;;;;;;6015113;23;20044;-87
2022/03/09 01:49:19;;;;;;;98.68;40.58;;;;;;;;;;6014820;23;20039;-90
2022/03/09 01:51:46;;;;;;;95.80;42.67;;;;;;;;;;6015168;23;20003;-90
2022/03/09 01:54:13;;;;;;;104.35;47.03;;;;;;;;;;6014763;23;20027;-89
2022/03/09 01:56:39;;;;;;;99.20;43.33;;;;;;;;;;6014224;23;20011;-89
2022/03/09 01:59:07;;;;;;;109.30;47.45;;;;;;;;;;6015920;23;20011;-88
2022/03/09 02:01:33;;;;;;;117.60;51.40;;;;;;;;;;6015209;23;20007;-88
2022/03/09 02:04:00;;;;;;;141.77;59.22;;;;;;;;;;6040536;23;20003;-88
2022/03/09 02:06:26;;;;;;;148.98;67.15;;;;;;;;;;6015715;23;20419;-89
2022/03/09 02:11:38;;;;;;;164.32;74.95;;;;;;;;;;6040154;23;20107;-92
2022/03/09 02:14:05;;;;;;;178.85;73.40;;;;;;;;;;6040611;23;20089;-91
2022/03/09 02:16:31;;;;;;;160.35;73.45;;;;;;;;;;6040644;23;20081;-90
2022/03/09 02:19:01;;;;;;;163.65;73.47;;;;;;;;;;6040777;23;20075;-90
2022/03/09 02:21:27;;;;;;;172.88;76.07;;;;;;;;;;6040379;23;20003;-91
2022/03/09 02:23:55;;;;;;;175.70;78.95;;;;;;;;;;6015283;23;20003;-90
2022/03/09 02:26:21;;;;;;;188.02;77.82;;;;;;;;;;6013455;23;20428;-91
2022/03/09 02:28:48;;;;;;;191.25;75.25;;;;;;;;;;6014992;23;20094;-89
2022/03/09 02:31:24;;;;;;;223.32;84.75;;;;;;;;;;6015667;23;20003;-89
2022/03/09 02:33:51;;;;;;;224.93;87.05;;;;;;;;;;6040099;23;20015;-89
2022/03/09 02:36:20;;;;;;;255.13;91.05;;;;;;;;;;6041122;23;20007;-91
2022/03/09 02:38:46;;;;;;;277.15;94.80;;;;;;;;;;6015384;23;20012;-89
2022/03/09 02:41:12;;;;;;;288.83;99.55;;;;;;;;;;6015288;23;20007;-89
2022/03/09 02:43:39;;;;;;;287.73;99.13;;;;;;;;;;6014818;23;20503;-89
2022/03/09 02:46:05;;;;;;;268.95;96.50;;;;;;;;;;6014721;23;20007;-87
2022/03/09 02:48:31;;;;;;;278.00;102.47;;;;;;;;;;6015000;23;20012;-88
2022/03/09 02:51:02;;;;;;;273.95;102.07;;;;;;;;;;6013554;23;20331;-90
2022/03/09 02:53:28;;;;;;;248.20;96.13;;;;;;;;;;6014941;23;20015;-90
2022/03/09 02:55:54;;;;;;;251.38;98.72;;;;;;;;;;6015157;23;20014;-91
2022/03/09 02:58:20;;;;;;;232.73;96.05;;;;;;;;;;6015517;23;20057;-90
2022/03/09 03:00:47;;;;;;;233.07;93.55;;;;;;;;;;6014815;23;20004;-91
2022/03/09 03:03:13;;;;;;;229.23;89.55;;;;;;;;;;6014440;23;20062;-88
2022/03/09 03:05:39;;;;;;;232.23;89.28;;;;;;;;;;6039924;23;20000;-91
2022/03/09 03:08:05;;;;;;;243.00;89.70;;;;;;;;;;6015109;23;20082;-89
2022/03/09 03:10:32;;;;;;;248.88;89.95;;;;;;;;;;6015073;23;20031;-89
2022/03/09 03:12:58;;;;;;;236.93;90.65;;;;;;;;;;6014503;23;20019;-90
2022/03/09 03:15:24;;;;;;;243.82;92.10;;;;;;;;;;6015328;23;20015;-91
2022/03/09 03:17:50;;;;;;;245.18;89.47;;;;;;;;;;6015159;23;20055;-89
2022/03/09 03:20:17;;;;;;;247.55;91.65;;;;;;;;;;6040184;23;20018;-92
2022/03/09 03:22:43;;;;;;;265.35;97.00;;;;;;;;;;6040516;23;20094;-90
2022/03/09 03:25:09;;;;;;;245.95;89.85;;;;;;;;;;6014959;23;20014;-90
2022/03/09 03:27:35;;;;;;;234.18;83.70;;;;;;;;;;6015325;23;20078;-90
2022/03/09 03:30:02;;;;;;;224.82;81.03;;;;;;;;;;6015031;23;20003;-92
2022/03/09 03:32:28;;;;;;;197.40;74.13;;;;;;;;;;6015125;23;20442;-92
2022/03/09 03:34:54;;;;;;;186.73;72.85;;;;;;;;;;6014031;23;20030;-91
2022/03/09 03:37:20;;;;;;;199.70;73.38;;;;;;;;;;6015023;23;20003;-88
2022/03/09 03:39:47;;;;;;;191.60;70.80;;;;;;;;;;6014901;23;20014;-91
2022/03/09 03:42:13;;;;;;;199.80;74.60;;;;;;;;;;6039482;23;20010;-89
2022/03/09 03:44:39;;;;;;;214.27;75.38;;;;;;;;;;6015033;23;20007;-90
2022/03/09 03:47:06;;;;;;;201.32;72.47;;;;;;;;;;6039644;23;20647;-88
2022/03/09 03:49:32;;;;;;;194.82;73.45;;;;;;;;;;6015158;23;20007;-90
2022/03/09 03:51:58;;;;;;;206.80;77.05;;;;;;;;;;6014515;23;19999;-90
2022/03/09 03:54:24;;;;;;;197.15;79.18;;;;;;;;;;6014690;23;20093;-90
2022/03/09 03:56:51;;;;;;;184.70;73.43;;;;;;;;;;6015064;23;20011;-92
2022/03/09 03:59:17;;;;;;;221.75;81.03;;;;;;;;;;6015331;23;20003;-91
2022/03/09 04:01:43;;;;;;;201.23;76.45;;;;;;;;;;6014880;23;20007;-89
2022/03/09 04:04:10;;;;;;;197.68;75.93;;;;;;;;;;6015207;23;20055;-88
2022/03/09 04:06:36;;;;;;;227.40;83.35;;;;;;;;;;6015080;23;20017;-87
2022/03/09 04:09:03;;;;;;;227.23;84.15;;;;;;;;;;6014089;23;20004;-90
2022/03/09 04:11:29;;;;;;;207.60;77.82;;;;;;;;;;6014772;23;20016;-90
2022/03/09 04:13:55;;;;;;;209.00;81.53;;;;;;;;;;6013938;23;20015;-90
2022/03/09 04:16:21;;;;;;;216.88;78.10;;;;;;;;;;6039982;23;20006;-90
2022/03/09 04:18:48;;;;;;;211.48;79.75;;;;;;;;;;6013944;23;20013;-88
2022/03/09 04:21:14;;;;;;;227.85;83.22;;;;;;;;;;6016532;23;20011;-90
2022/03/09 04:23:40;;;;;;;209.77;79.97;;;;;;;;;;6041232;23;20017;-88
2022/03/09 04:26:06;;;;;;;215.48;78.20;;;;;;;;;;6016392;23;20415;-90
2022/03/09 04:28:33;;;;;;;231.25;81.15;;;;;;;;;;6016193;23;20090;-89
2022/03/09 04:31:00;;;;;;;186.68;72.72;;;;;;;;;;6017446;23;20007;-90
2022/03/09 04:33:26;;;;;;;199.05;74.47;;;;;;;;;;6016269;23;20008;-89
2022/03/09 04:35:52;;;;;;;205.65;77.78;;;;;;;;;;6016530;23;20067;-90
2022/03/09 04:38:18;;;;;;;207.75;78.85;;;;;;;;;;6016275;23;20067;-90
2022/03/09 04:40:45;;;;;;;191.77;73.05;;;;;;;;;;6015718;23;20008;-89
2022/03/09 04:43:11;;;;;;;216.18;78.07;;;;;;;;;;6016050;23;20012;-88
2022/03/09 04:45:37;;;;;;;218.85;80.40;;;;;;;;;;6016421;23;20090;-90
2022/03/09 04:48:04;;;;;;;218.93;82.63;;;;;;;;;;6016500;23;20003;-90
2022/03/09 04:50:30;;;;;;;213.68;80.63;;;;;;;;;;6016108;23;20015;-90
2022/03/09 04:52:56;;;;;;;205.57;78.03;;;;;;;;;;6017512;23;20415;-88
2022/03/09 04:55:25;;;;;;;208.63;78.95;;;;;;;;;;6016716;23;20528;-90
2022/03/09 04:57:52;;;;;;;212.00;79.78;;;;;;;;;;6041640;23;20007;-91
2022/03/09 05:00:18;;;;;;;217.45;78.70;;;;;;;;;;6016812;23;20047;-91
2022/03/09 05:02:44;;;;;;;212.80;82.07;;;;;;;;;;6016591;23;20443;-90
2022/03/09 05:05:11;;;;;;;188.95;76.93;;;;;;;;;;6016778;23;20014;-90
2022/03/09 05:07:41;;;;;;;183.73;72.25;;;;;;;;;;6017004;23;20034;-89
2022/03/09 05:10:07;;;;;;;182.05;72.13;;;;;;;;;;6041225;23;20007;-90
2022/03/09 05:12:34;;;;;;;190.05;76.55;;;;;;;;;;6016426;23;20086;-87
2022/03/09 05:15:00;;;;;;;188.80;77.55;;;;;;;;;;6040901;23;20010;-88
2022/03/09 05:17:26;;;;;;;181.48;77.68;;;;;;;;;;5993583;23;20034;-90
2022/03/09 05:19:52;;;;;;;189.50;79.97;;;;;;;;;;6016347;23;20086;-89
2022/03/09 05:22:19;;;;;;;180.70;76.38;;;;;;;;;;6016133;23;20014;-89
2022/03/09 05:24:45;;;;;;;201.35;82.40;;;;;;;;;;6015926;23;20027;-87
2022/03/09 05:27:11;;;;;;;184.43;78.07;;;;;;;;;;6016061;23;20438;-88
2022/03/09 05:29:37;;;;;;;176.48;77.05;;;;;;;;;;6016406;23;20013;-88
2022/03/09 05:32:05;;;;;;;171.05;76.07;;;;;;;;;;6040004;23;20003;-89
2022/03/09 05:34:31;;;;;;;182.60;79.80;;;;;;;;;;6040153;23;20027;-89
2022/03/09 05:36:57;;;;;;;182.93;83.13;;;;;;;;;;6016005;23;20003;-90
2022/03/09 05:39:23;;;;;;;199.73;87.45;;;;;;;;;;6016173;23;20014;-88
2022/03/09 05:41:50;;;;;;;176.05;77.75;;;;;;;;;;6016080;23;20004;-89
2022/03/09 05:44:16;;;;;;;168.05;74.90;;;;;;;;;;6015538;23;20017;-87
2022/03/09 05:46:43;;;;;;;171.98;78.35;;;;;;;;;;6015726;23;20007;-89
2022/03/09 05:49:09;;;;;;;182.63;77.55;;;;;;;;;;6015535;23;20004;-92
2022/03/09 05:51:35;;;;;;;165.30;73.13;;;;;;;;;;6015708;23;20015;-88
2022/03/09 05:54:02;;;;;;;164.57;72.07;;;;;;;;;;6015594;23;20061;-89
2022/03/09 05:56:28;;;;;;;171.35;74.38;;;;;;;;;;6015868;23;20034;-89
2022/03/09 05:58:54;;;;;;;175.98;75.22;;;;;;;;;;6014864;23;20007;-87
2022/03/09 06:01:21;;;;;;;187.30;77.57;;;;;;;;;;6014991;23;20014;-87
2022/03/09 06:03:47;;;;;;;183.27;77.13;;;;;;;;;;6015193;23;20069;-91
2022/03/09 06:06:13;;;;;;;174.48;76.05;;;;;;;;;;6016062;23;20010;-91
2022/03/09 06:08:40;;;;;;;169.60;74.93;;;;;;;;;;6015070;23;20004;-89
2022/03/09 06:11:06;;;;;;;176.57;79.13;;;;;;;;;;6040779;23;20055;-88
2022/03/09 06:13:32;;;;;;;171.48;75.55;;;;;;;;;;5992071;23;20015;-87
2022/03/09 06:15:58;;;;;;;166.52;78.55;;;;;;;;;;6015004;23;20014;-87
2022/03/09 06:18:25;;;;;;;159.70;72.68;;;;;;;;;;6014929;23;20012;-87
2022/03/09 06:20:51;;;;;;;146.45;70.07;;;;;;;;;;5991839;23;20058;-89
2022/03/09 06:23:18;;;;;;;159.98;71.72;;;;;;;;;;6015076;23;20427;-88
2022/03/09 06:25:44;;;;;;;177.05;79.72;;;;;;;;;;6014187;23;20055;-89
2022/03/09 06:28:11;;;;;;;175.40;75.68;;;;;;;;;;6015007;23;20050;-89
2022/03/09 06:30:37;;;;;;;165.18;74.18;;;;;;;;;;6014736;23;20018;-87
2022/03/09 06:33:03;;;;;;;172.60;71.93;;;;;;;;;;6014772;23;20014;-89
2022/03/09 06:35:30;;;;;;;166.93;74.80;;;;;;;;;;6013606;23;20023;-88
2022/03/09 06:37:56;;;;;;;169.73;75.38;;;;;;;;;;5991169;23;20003;-88
2022/03/09 06:40:22;;;;;;;167.07;69.72;;;;;;;;;;6013743;23;20003;-88
2022/03/09 06:42:49;;;;;;;161.55;72.32;;;;;;;;;;6013878;23;20011;-88
2022/03/09 06:45:15;;;;;;;174.85;72.85;;;;;;;;;;6014576;23;20003;-88
2022/03/09 06:47:42;;;;;;;169.32;72.13;;;;;;;;;;6014298;23;20007;-87
2022/03/09 06:50:09;;;;;;;164.23;71.28;;;;;;;;;;6014736;23;20031;-89
2022/03/09 06:52:35;;;;;;;170.55;73.85;;;;;;;;;;6013944;23;20015;-89
2022/03/09 06:55:07;;;;;;;165.52;73.38;;;;;;;;;;6014608;23;20027;-88
2022/03/09 06:57:34;;;;;;;167.43;75.78;;;;;;;;;;6014637;23;20003;-88
2022/03/09 07:00:00;;;;;;;179.95;76.80;;;;;;;;;;6039317;23;20006;-89
2022/03/09 07:02:28;;;;;;;163.85;71.68;;;;;;;;;;6014339;23;20431;-90
2022/03/09 07:04:54;;;;;;;173.27;75.63;;;;;;;;;;6014105;23;20060;-89
2022/03/09 07:07:20;;;;;;;178.23;75.68;;;;;;;;;;6014283;23;20015;-88
2022/03/09 07:09:46;;;;;;;167.30;75.00;;;;;;;;;;6014134;23;20030;-88
2022/03/09 07:12:13;;;;;;;162.93;73.53;;;;;;;;;;6014605;23;20015;-87
2022/03/09 07:14:39;;;;;;;156.15;72.78;;;;;;;;;;6013316;23;20090;-89
2022/03/09 07:17:05;;;;;;;160.63;72.63;;;;;;;;;;6039200;23;20411;-88
2022/03/09 07:19:32;;;;;;;162.35;70.97;;;;;;;;;;6039731;23;20085;-88
2022/03/09 07:21:58;;;;;;;154.23;71.35;;;;;;;;;;6014032;23;20010;-88
2022/03/09 07:24:24;;;;;;;150.80;71.18;;;;;;;;;;6040258;23;20051;-89
2022/03/09 07:26:50;;;;;;;157.85;69.80;;;;;;;;;;6038995;23;20010;-88
2022/03/09 07:29:17;;;;;;;158.35;70.60;;;;;;;;;;6039180;23;20066;-90
2022/03/09 07:31:44;;;;;;;144.05;69.70;;;;;;;;;;6014223;23;20090;-89
2022/03/09 07:34:10;;;;;;;159.30;70.68;;;;;;;;;;6039628;23;20023;-89
2022/03/09 07:36:36;;;;;;;157.48;73.13;;;;;;;;;;6038767;23;20016;-89
2022/03/09 07:39:03;;;;;;;151.68;71.03;;;;;;;;;;6014090;23;20004;-89
2022/03/09 07:41:29;;;;;;;148.95;72.25;;;;;;;;;;6014056;23;20457;-86
2022/03/09 07:43:55;;;;;;;151.60;73.13;;;;;;;;;;6014045;23;20011;-87
2022/03/09 07:46:21;;;;;;;140.20;69.72;;;;;;;;;;6012395;23;20022;-88
2022/03/09 07:48:48;;;;;;;149.65;75.22;;;;;;;;;;6013834;23;20055;-87
2022/03/09 07:51:14;;;;;;;155.95;72.88;;;;;;;;;;6013812;23;20010;-88
2022/03/09 07:53:42;;;;;;;139.27;70.45;;;;;;;;;;6013190;23;20012;-86
2022/03/09 07:56:15;;;;;;;133.05;67.10;;;;;;;;;;6013656;23;20019;-89
2022/03/09 07:58:41;;;;;;;147.65;68.43;;;;;;;;;;6013366;23;20003;-88
2022/03/09 08:01:07;;;;;;;153.18;71.82;;;;;;;;;;6013956;23;20636;-88
2022/03/09 08:03:34;;;;;;;139.60;69.70;;;;;;;;;;6013336;23;20296;-88
2022/03/09 08:06:00;;;;;;;129.98;64.70;;;;;;;;;;6014141;23;20034;-87
2022/03/09 08:08:27;;;;;;;121.38;65.60;;;;;;;;;;6039214;23;20010;-86
2022/03/09 08:10:53;;;;;;;130.55;67.78;;;;;;;;;;6011543;23;20514;-88
2022/03/09 08:13:19;;;;;;;123.60;62.65;;;;;;;;;;6038307;23;20007;-89
2022/03/09 08:15:47;;;;;;;124.15;62.60;;;;;;;;;;6037254;23;20004;-88
2022/03/09 08:18:13;;;;;;;115.80;57.75;;;;;;;;;;6011873;23;20003;-89
2022/03/09 08:20:39;;;;;;;127.93;64.63;;;;;;;;;;6011493;23;20028;-87
2022/03/09 08:23:06;;;;;;;132.70;67.95;;;;;;;;;;6012472;23;20014;-88
2022/03/09 08:25:32;;;;;;;130.85;70.80;;;;;;;;;;6012315;23;20438;-88
2022/03/09 08:28:01;;;;;;;140.93;73.07;;;;;;;;;;6011956;23;20007;-89
2022/03/09 08:30:27;;;;;;;132.85;71.00;;;;;;;;;;6013704;23;20011;-87
2022/03/09 08:32:54;;;;;;;135.52;71.45;;;;;;;;;;6013015;23;20017;-89
2022/03/09 08:35:20;;;;;;;128.93;69.68;;;;;;;;;;6037498;23;20019;-88
2022/03/09 08:37:46;;;;;;;125.63;68.65;;;;;;;;;;6012964;23;20015;-88
2022/03/09 08:40:13;;;;;;;132.55;70.60;;;;;;;;;;6013455;23;20006;-88
2022/03/09 08:42:39;;;;;;;123.60;65.13;;;;;;;;;;6013862;23;20011;-88
2022/03/09 08:45:06;;;;;;;109.97;61.85;;;;;;;;;;6013948;23;20003;-88
2022/03/09 08:47:32;;;;;;;107.97;58.15;;;;;;;;;;6014001;23;20007;-87
2022/03/09 08:49:58;;;;;;;97.40;56.20;;;;;;;;;;6013219;23;20341;-89
2022/03/09 08:52:24;;;;;;;105.60;57.92;;;;;;;;;;6013460;23;20015;-85
2022/03/09 08:54:54;;;;;;;99.35;56.70;;;;;;;;;;6012821;23;20026;-87
2022/03/09 08:57:21;;;;;;;114.03;61.00;;;;;;;;;;6013345;23;20072;-86
2022/03/09 08:59:48;;;;;;;103.82;57.80;;;;;;;;;;6013489;23;20061;-87
2022/03/09 09:02:15;;;;;;;105.43;57.42;;;;;;;;;;6013402;23;20011;-87
2022/03/09 09:04:42;;;;;;;112.97;60.92;;;;;;;;;;6013294;23;20308;-87
2022/03/09 09:07:08;;;;;;;115.13;60.10;;;;;;;;;;6015191;23;20010;-87
2022/03/09 09:09:34;;;;;;;121.38;62.20;;;;;;;;;;6014909;23;20007;-87
2022/03/09 09:12:01;;;;;;;120.82;62.58;;;;;;;;;;6014379;23;20010;-87
2022/03/09 09:14:28;;;;;;;123.93;63.22;;;;;;;;;;6038579;23;20007;-88
2022/03/09 09:16:55;;;;;;;125.20;64.18;;;;;;;;;;6015268;23;20003;-87
2022/03/09 09:19:21;;;;;;;114.35;61.40;;;;;;;;;;6039777;23;20538;-87
2022/03/09 09:21:47;;;;;;;105.32;57.17;;;;;;;;;;6015173;23;20043;-87
2022/03/09 09:24:14;;;;;;;105.38;56.65;;;;;;;;;;6015132;23;20007;-87
2022/03/09 09:26:41;;;;;;;114.38;60.92;;;;;;;;;;6014331;23;20007;-87
2022/03/09 09:29:07;;;;;;;103.38;57.10;;;;;;;;;;6014841;23;20664;-87
2022/03/09 09:31:34;;;;;;;110.72;57.38;;;;;;;;;;6014053;23;20011;-87
2022/03/09 09:34:00;;;;;;;105.63;60.30;;;;;;;;;;6014396;23;20378;-86
2022/03/09 09:36:26;;;;;;;101.70;56.92;;;;;;;;;;6014786;23;20334;-89
2022/03/09 09:38:53;;;;;;;101.78;55.88;;;;;;;;;;6014881;23;20067;-86
2022/03/09 09:41:24;;;;;;;93.00;52.25;;;;;;;;;;6014105;23;20007;-86
2022/03/09 09:43:50;;;;;;;93.07;52.13;;;;;;;;;;6014835;23;20011;-87
2022/03/09 09:46:17;;;;;;;95.88;51.92;;;;;;;;;;6015097;23;20382;-87
2022/03/09 09:48:44;;;;;;;99.40;54.30;;;;;;;;;;6014433;23;20076;-87
2022/03/09 09:51:12;;;;;;;97.93;55.03;;;;;;;;;;6014722;23;20010;-87
2022/03/09 09:53:41;;;;;;;102.85;55.20;;;;;;;;;;6014942;23;20051;-86
2022/03/09 09:56:08;;;;;;;99.47;55.08;;;;;;;;;;6015052;23;20086;-87
2022/03/09 09:58:35;;;;;;;110.88;57.70;;;;;;;;;;6014565;23;20112;-87
2022/03/09 10:01:01;;;;;;;102.05;56.42;;;;;;;;;;6015161;23;20003;-93
2022/03/09 10:03:27;;;;;;;97.15;55.45;;;;;;;;;;6015226;23;20335;-90
2022/03/09 10:05:54;;;;;;;98.45;53.58;;;;;;;;;;6015196;23;20483;-90
2022/03/09 10:08:20;;;;;;;97.70;55.85;;;;;;;;;;6015015;23;20011;-89
2022/03/09 10:10:56;;;;;;;95.18;53.42;;;;;;;;;;6014934;23;20035;-89
2022/03/09 10:13:24;;;;;;;91.30;52.67;;;;;;;;;;6014944;23;20483;-89
2022/03/09 10:16:15;;;;;;;95.28;55.20;;;;;;;;;;6014121;23;20027;-88
2022/03/09 10:18:48;;;;;;;92.35;51.42;;;;;;;;;;6014232;23;20032;-87
2022/03/09 10:21:23;;;;;;;94.47;54.90;;;;;;;;;;6014652;23;20014;-87
2022/03/09 10:23:53;;;;;;;88.82;51.20;;;;;;;;;;6014291;23;20012;-86
2022/03/09 10:26:19;;;;;;;92.28;51.35;;;;;;;;;;6014464;23;20065;-88
2022/03/09 10:28:59;;;;;;;91.13;52.13;;;;;;;;;;6013800;23;20003;-87
2022/03/09 10:31:38;;;;;;;91.20;53.13;;;;;;;;;;6014092;23;20011;-87
2022/03/09 10:34:05;;;;;;;95.28;54.58;;;;;;;;;;6013914;23;20027;-87
2022/03/09 10:36:31;;;;;;;96.57;55.10;;;;;;;;;;6013523;23;20011;-88
2022/03/09 10:39:14;;;;;;;102.70;56.35;;;;;;;;;;6014320;23;20039;-89
2022/03/09 10:41:40;;;;;;;106.57;56.75;;;;;;;;;;6014298;23;20031;-88
2022/03/09 10:44:07;;;;;;;105.10;56.67;;;;;;;;;;6014164;23;20011;-87
2022/03/09 10:46:43;;;;;;;100.90;55.67;;;;;;;;;;6037639;23;20003;-86
2022/03/09 10:49:12;;;;;;;100.88;54.72;;;;;;;;;;6014479;23;20004;-87
2022/03/09 10:51:51;;;;;;;93.88;54.33;;;;;;;;;;6014848;23;20102;-86
2022/03/09 10:54:25;;;;;;;98.85;55.85;;;;;;;;;;6014616;23;20082;-86
2022/03/09 10:57:03;;;;;;;101.65;55.28;;;;;;;;;;6013917;23;20011;-87
2022/03/09 10:59:29;;;;;;;103.85;56.97;;;;;;;;;;6014137;23;20054;-88
2022/03/09 11:02:08;;;;;;;109.18;60.22;;;;;;;;;;6014759;23;20034;-87
2022/03/09 11:04:35;;;;;;;111.60;60.70;;;;;;;;;;6014295;23;20003;-87
2022/03/09 11:07:02;;;;;;;109.57;58.50;;;;;;;;;;6014801;23;20062;-86
2022/03/09 11:09:28;;;;;;;109.38;58.10;;;;;;;;;;6014329;23;20422;-86
2022/03/09 11:11:55;;;;;;;109.90;57.95;;;;;;;;;;6014173;23;20419;-86
2022/03/09 11:14:25;;;;;;;113.82;59.83;;;;;;;;;;6039587;23;20039;-86
2022/03/09 11:16:52;;;;;;;109.25;58.72;;;;;;;;;;6039806;23;20007;-87
2022/03/09 11:19:19;;;;;;;105.82;57.03;;;;;;;;;;6039831;23;20444;-87
2022/03/09 11:21:45;;;;;;;116.57;57.72;;;;;;;;;;6013981;23;20007;-86
2022/03/09 11:24:12;;;;;;;111.50;60.67;;;;;;;;;;6037812;23;20004;-84
2022/03/09 11:26:46;;;;;;;109.03;57.83;;;;;;;;;;6038818;23;20023;-86
2022/03/09 11:29:13;;;;;;;108.07;59.58;;;;;;;;;;5994147;23;20015;-88
2022/03/09 11:31:47;;;;;;;126.22;63.63;;;;;;;;;;6013840;23;20010;-87
2022/03/09 11:34:32;;;;;;;122.35;64.85;;;;;;;;;;6013803;23;20030;-86
2022/03/09 11:36:59;;;;;;;118.78;62.60;;;;;;;;;;6013519;23;20733;-86
2022/03/09 11:39:26;;;;;;;120.53;63.92;;;;;;;;;;6014462;23;20138;-87
2022/03/09 11:42:12;;;;;;;125.13;65.60;;;;;;;;;;6014336;23;20420;-87
2022/03/09 11:44:39;;;;;;;132.30;67.13;;;;;;;;;;6015216;23;20490;-85
2022/03/09 11:47:07;;;;;;;135.93;67.93;;;;;;;;;;6014602;23;20008;-86
2022/03/09 11:49:42;;;;;;;142.57;72.78;;;;;;;;;;6038832;23;20067;-86
2022/03/09 11:52:12;;;;;;;141.20;70.18;;;;;;;;;;6013566;23;20010;-86
2022/03/09 11:54:47;;;;;;;133.68;69.88;;;;;;;;;;6013907;23;20058;-88
2022/03/09 11:57:15;;;;;;;129.38;68.05;;;;;;;;;;6039795;23;20372;-86
2022/03/09 12:00:02;;;;;;;134.68;69.57;;;;;;;;;;6013993;23;20003;-88
2022/03/09 12:02:41;;;;;;;133.43;69.75;;;;;;;;;;6013985;23;20011;-86
2022/03/09 12:05:26;;;;;;;135.15;70.88;;;;;;;;;;6012952;23;20007;-87
2022/03/09 12:07:53;;;;;;;137.70;70.38;;;;;;;;;;6014374;23;20327;-87
2022/03/09 12:10:40;;;;;;;141.23;70.90;;;;;;;;;;6012095;23;20058;-86
2022/03/09 12:13:20;;;;;;;132.80;69.57;;;;;;;;;;6013505;23;20014;-86
2022/03/09 12:16:12;;;;;;;146.10;73.38;;;;;;;;;;6013120;23;20011;-87
2022/03/09 12:18:50;;;;;;;137.25;70.38;;;;;;;;;;6038831;23;20030;-86
2022/03/09 12:21:18;;;;;;;147.82;71.20;;;;;;;;;;6013810;23;20007;-86
2022/03/09 12:24:00;;;;;;;146.90;76.30;;;;;;;;;;6038643;23;20132;-86
2022/03/09 12:26:45;;;;;;;140.75;71.13;;;;;;;;;;6013740;23;20010;-86
2022/03/09 12:29:21;;;;;;;142.48;71.82;;;;;;;;;;6013356;23;20007;-87
2022/03/09 12:32:07;;;;;;;146.05;74.03;;;;;;;;;;6013769;23;20007;-86
2022/03/09 12:34:37;;;;;;;138.18;70.43;;;;;;;;;;6012809;23;20376;-88
2022/03/09 12:37:08;;;;;;;147.60;74.15;;;;;;;;;;6013576;23;20008;-87
2022/03/09 12:39:35;;;;;;;144.82;73.57;;;;;;;;;;6013691;23;20018;-85
2022/03/09 12:42:02;;;;;;;146.88;72.30;;;;;;;;;;6014817;23;20495;-85
2022/03/09 12:44:30;;;;;;;142.70;73.40;;;;;;;;;;6014665;23;20669;-87
2022/03/09 12:47:01;;;;;;;143.98;73.88;;;;;;;;;;6015316;23;20423;-86
2022/03/09 12:49:34;;;;;;;151.32;75.30;;;;;;;;;;6015578;23;20003;-88
2022/03/09 12:52:02;;;;;;;155.88;78.45;;;;;;;;;;6040039;23;20420;-86
2022/03/09 12:54:38;;;;;;;154.32;74.65;;;;;;;;;;6014851;23;20023;-86
2022/03/09 12:57:08;;;;;;;154.52;74.47;;;;;;;;;;6015076;23;20014;-86
2022/03/09 12:59:34;;;;;;;142.55;71.40;;;;;;;;;;6015270;23;20003;-86
2022/03/09 13:02:00;;;;;;;157.95;81.38;;;;;;;;;;6040383;23;20003;-87
2022/03/09 13:04:27;;;;;;;180.40;82.97;;;;;;;;;;6014983;23;20004;-91
2022/03/09 13:06:55;;;;;;;169.30;82.40;;;;;;;;;;6015148;23;20055;-87
2022/03/09 13:09:22;;;;;;;165.90;83.50;;;;;;;;;;6040194;23;20006;-87
2022/03/09 13:11:48;;;;;;;178.63;85.70;;;;;;;;;;6015114;23;20453;-86
2022/03/09 13:14:18;;;;;;;167.30;82.68;;;;;;;;;;6040138;23;20026;-87
2022/03/09 13:16:47;;;;;;;179.93;85.80;;;;;;;;;;6013279;23;20003;-87
2022/03/09 13:19:14;;;;;;;185.70;88.95;;;;;;;;;;6014314;23;20004;-86
2022/03/09 13:21:43;;;;;;;186.38;89.90;;;;;;;;;;6015550;23;20046;-87
2022/03/09 13:24:14;;;;;;;169.35;81.78;;;;;;;;;;6015427;23;20007;-85
2022/03/09 13:26:44;;;;;;;173.15;84.78;;;;;;;;;;6040487;23;20003;-87
2022/03/09 13:29:16;;;;;;;169.30;82.10;;;;;;;;;;6015450;23;20007;-87
2022/03/09 13:31:52;;;;;;;181.30;87.68;;;;;;;;;;6015381;23;20438;-87
2022/03/09 13:34:19;;;;;;;175.40;82.72;;;;;;;;;;6015271;23;20026;-86
2022/03/09 13:36:46;;;;;;;180.38;85.72;;;;;;;;;;6013205;23;20015;-86
2022/03/09 13:39:13;;;;;;;182.13;87.45;;;;;;;;;;6012217;23;20015;-87
2022/03/09 13:41:40;;;;;;;191.82;88.97;;;;;;;;;;6038309;23;20007;-87
2022/03/09 13:44:25;;;;;;;179.55;88.30;;;;;;;;;;6012716;23;20060;-87
2022/03/09 13:47:01;;;;;;;166.93;81.75;;;;;;;;;;6012154;23;20039;-86
2022/03/09 13:49:27;;;;;;;170.98;81.65;;;;;;;;;;6037147;23;20041;-85
2022/03/09 13:51:53;;;;;;;156.30;77.28;;;;;;;;;;6038139;23;20083;-87
2022/03/09 13:54:21;;;;;;;163.98;81.75;;;;;;;;;;6011868;23;20427;-87
2022/03/09 13:57:03;;;;;;;171.43;79.85;;;;;;;;;;6014483;23;20016;-86
2022/03/09 13:59:44;;;;;;;173.98;82.43;;;;;;;;;;6014793;23;20011;-86
2022/03/09 14:02:23;;;;;;;174.57;86.05;;;;;;;;;;6013950;23;20004;-87
2022/03/09 14:04:50;;;;;;;171.40;83.97;;;;;;;;;;6014487;23;20007;-86
2022/03/09 14:07:17;;;;;;;163.32;80.03;;;;;;;;;;6038602;23;20000;-87
2022/03/09 14:10:03;;;;;;;172.25;81.10;;;;;;;;;;6012369;23;20003;-87
2022/03/09 14:12:29;;;;;;;172.38;81.88;;;;;;;;;;6013928;23;20018;-87
2022/03/09 14:14:55;;;;;;;163.70;79.32;;;;;;;;;;6014837;23;20065;-87